createdAt,value
2023-03-02T00:01:28.820Z,70.31152
2023-03-02T00:04:51.886Z,70.39648
2023-03-02T00:06:51.808Z,70.48047
2023-03-02T00:08:51.871Z,70.49512
2023-03-02T00:10:51.859Z,70.22363
2023-03-02T00:12:51.795Z,70.00488
2023-03-02T00:14:51.882Z,69.80859
2023-03-02T00:16:51.784Z,69.70508
2023-03-02T00:19:39.966Z,70.28613
2023-03-02T00:21:39.934Z,70.3418
2023-03-02T00:23:39.935Z,69.99805
2023-03-02T00:25:40.001Z,70.45996
2023-03-02T00:27:39.912Z,71.62598
2023-03-02T00:29:39.929Z,70.96582
2023-03-02T00:31:40.081Z,71.46777
2023-03-02T00:35:07.029Z,71.11621
2023-03-02T00:37:06.994Z,70.56543
2023-03-02T00:39:07.007Z,70.48145
2023-03-02T00:41:07.122Z,70.37305
2023-03-02T00:43:06.978Z,70.35059
2023-03-02T00:45:07.136Z,70.18359
2023-03-02T00:47:07.130Z,70.4873
2023-03-02T00:50:24.302Z,70.47656
2023-03-02T00:52:24.263Z,70.35938
2023-03-02T00:54:24.212Z,70.41113
2023-03-02T00:56:24.335Z,70.4707
2023-03-02T00:58:24.289Z,70.71191
2023-03-02T01:00:24.219Z,71.2666
2023-03-02T01:02:24.550Z,71.55859
2023-03-02T01:05:29.787Z,71.63184
2023-03-02T01:07:29.830Z,71.57813
2023-03-02T01:09:29.829Z,71.83496
2023-03-02T01:11:29.912Z,71.72461
2023-03-02T01:13:29.846Z,72.10156
2023-03-02T01:15:29.846Z,71.86621
2023-03-02T01:17:29.828Z,72.26074
2023-03-02T01:20:51.784Z,72.58496
2023-03-02T01:22:51.821Z,72.83691
2023-03-02T01:24:51.787Z,72.86426
2023-03-02T01:26:51.929Z,72.70117
2023-03-02T01:28:51.795Z,72.91602
2023-03-02T01:30:51.773Z,72.67383
2023-03-02T01:32:51.801Z,73.00781
2023-03-02T01:35:41.046Z,72.71191
2023-03-02T01:37:40.918Z,73.11621
2023-03-02T01:39:40.930Z,72.99316
2023-03-02T01:41:40.928Z,73.72168
2023-03-02T01:43:40.943Z,73.81934
2023-03-02T01:45:41.039Z,73.89258
2023-03-02T01:47:40.948Z,74.12402
2023-03-02T01:50:59.403Z,74.33789
2023-03-02T01:52:59.367Z,75.35938
2023-03-02T01:54:59.396Z,75.06152
2023-03-02T01:56:59.498Z,75.28906
2023-03-02T01:58:59.497Z,75.05078
2023-03-02T02:00:59.581Z,74.4873
2023-03-02T02:02:59.360Z,75.11133
2023-03-02T02:06:01.462Z,74.58887
2023-03-02T02:08:01.515Z,74.75586
2023-03-02T02:10:01.468Z,74.72754
2023-03-02T02:12:01.518Z,74.34473
2023-03-02T02:14:01.537Z,74.11133
2023-03-02T02:16:01.498Z,73.68945
2023-03-02T02:18:01.514Z,73.58105
2023-03-02T02:21:04.734Z,73.36426
2023-03-02T02:23:04.755Z,73.33301
2023-03-02T02:25:04.575Z,73.46094
2023-03-02T02:27:04.519Z,73.20801
2023-03-02T02:29:04.895Z,73.04785
2023-03-02T02:31:04.625Z,72.71582
2023-03-02T02:33:04.553Z,72.87988
2023-03-02T02:36:34.622Z,73.1084
2023-03-02T02:38:33.777Z,73.33008
2023-03-02T02:40:33.787Z,73.2832
2023-03-02T02:42:33.766Z,73.29492
2023-03-02T02:44:33.782Z,73.4375
2023-03-02T02:46:34.807Z,73.27051
2023-03-02T02:48:33.765Z,73.17383
2023-03-02T02:52:01.522Z,73.05176
2023-03-02T02:54:01.536Z,73.27734
2023-03-02T02:56:01.552Z,72.7959
2023-03-02T02:58:01.538Z,72.80664
2023-03-02T03:00:01.531Z,72.86523
2023-03-02T03:02:01.589Z,72.80078
2023-03-02T03:04:01.682Z,73.29785
2023-03-02T03:07:07.639Z,73.50293
2023-03-02T03:09:07.632Z,74.54199
2023-03-02T03:11:07.624Z,74.60352
2023-03-02T03:13:07.633Z,74.32715
2023-03-02T03:15:07.645Z,73.8125
2023-03-02T03:17:07.749Z,73.25098
2023-03-02T03:19:07.645Z,73.75293
2023-03-02T03:21:49.179Z,73.88477
2023-03-02T03:23:49.155Z,73.76563
2023-03-02T03:25:49.191Z,74.06055
2023-03-02T03:27:49.492Z,73.44629
2023-03-02T03:29:49.200Z,73.67383
2023-03-02T03:31:49.210Z,73.74512
2023-03-02T03:33:49.220Z,74.0332
2023-03-02T03:36:52.679Z,74.38281
2023-03-02T03:38:52.713Z,74.15918
2023-03-02T03:40:52.707Z,74.35059
2023-03-02T03:42:52.697Z,74.21484
2023-03-02T03:44:52.733Z,73.78516
2023-03-02T03:46:52.738Z,74.39648
2023-03-02T03:48:52.738Z,74.12402
2023-03-02T03:51:56.568Z,74.17285
2023-03-02T03:53:56.805Z,74.63184
2023-03-02T03:55:56.518Z,74.19824
2023-03-02T03:57:56.643Z,74.7832
2023-03-02T03:59:56.673Z,74.78906
2023-03-02T04:01:57.037Z,74.73633
2023-03-02T04:03:56.645Z,74.78711
2023-03-02T04:07:31.041Z,74.24707
2023-03-02T04:09:31.019Z,74.22559
2023-03-02T04:11:30.967Z,74.4375
2023-03-02T04:13:30.957Z,73.95898
2023-03-02T04:15:31.183Z,74.19531
2023-03-02T04:17:31.025Z,74.62988
2023-03-02T04:19:30.985Z,73.91016
2023-03-02T04:22:39.151Z,74.0625
2023-03-02T04:24:39.151Z,74.23633
2023-03-02T04:26:39.210Z,74.00879
2023-03-02T04:28:39.186Z,73.71582
2023-03-02T04:30:39.150Z,73.73633
2023-03-02T04:32:39.174Z,74.13379
2023-03-02T04:34:39.168Z,73.93848
2023-03-02T04:37:57.039Z,74.15723
2023-03-02T04:39:57.112Z,74.09766
2023-03-02T04:41:57.014Z,74.73926
2023-03-02T04:43:56.980Z,74.46973
2023-03-02T04:45:56.973Z,74.71289
2023-03-02T04:47:57.072Z,74.2002
2023-03-02T04:49:57.063Z,73.98145
2023-03-02T04:52:27.901Z,74.02148
2023-03-02T04:54:27.947Z,73.83301
2023-03-02T04:56:27.897Z,74.44629
2023-03-02T04:58:27.890Z,74.44824
2023-03-02T05:00:27.894Z,74.78418
2023-03-02T05:02:28.061Z,74.67578
2023-03-02T05:04:28.112Z,74.25391
2023-03-02T05:06:27.932Z,74.3877
2023-03-02T05:08:24.897Z,74.46191
2023-03-02T05:10:24.956Z,74.39355
2023-03-02T05:12:24.972Z,74.48145
2023-03-02T05:14:24.966Z,73.74414
2023-03-02T05:16:25.098Z,73.66113
2023-03-02T05:18:24.993Z,73.89063
2023-03-02T05:20:24.955Z,74.2002
2023-03-02T05:23:01.725Z,74.45215
2023-03-02T05:25:01.566Z,74.8418
2023-03-02T05:27:01.491Z,74.89648
2023-03-02T05:29:01.503Z,74.8877
2023-03-02T05:31:01.525Z,74.56836
2023-03-02T05:33:01.484Z,74.83789
2023-03-02T05:35:01.489Z,75.08301
2023-03-02T05:38:09.959Z,75.61523
2023-03-02T05:40:09.834Z,75.11914
2023-03-02T05:42:09.860Z,75.69922
2023-03-02T05:44:09.903Z,75.625
2023-03-02T05:46:09.878Z,75.11328
2023-03-02T05:48:09.827Z,75.30469
2023-03-02T05:50:09.874Z,75.39258
2023-03-02T05:53:13.547Z,75.68848
2023-03-02T05:55:13.438Z,75.5166
2023-03-02T05:57:13.400Z,75.34961
2023-03-02T05:59:13.462Z,75.55762
2023-03-02T06:01:15.786Z,75.47168
2023-03-02T06:03:13.571Z,75.7627
2023-03-02T06:05:13.431Z,75.85254
2023-03-02T06:07:13.346Z,75.38867
2023-03-02T06:08:44.775Z,75.84766
2023-03-02T06:10:44.980Z,76.0459
2023-03-02T06:12:45.032Z,76.20117
2023-03-02T06:14:44.906Z,75.62305
2023-03-02T06:16:45.043Z,76.06738
2023-03-02T06:18:44.821Z,75.68164
2023-03-02T06:20:44.851Z,75.77344
2023-03-02T06:23:40.369Z,75.43652
2023-03-02T06:25:40.023Z,75.66895
2023-03-02T06:27:39.996Z,75.32422
2023-03-02T06:29:40.027Z,75.50684
2023-03-02T06:31:40.183Z,75.46875
2023-03-02T06:33:39.941Z,75.49707
2023-03-02T06:35:40.270Z,75.75684
2023-03-02T06:38:51.145Z,75.8457
2023-03-02T06:40:51.212Z,75.60547
2023-03-02T06:42:51.145Z,75.41211
2023-03-02T06:44:51.266Z,75.41699
2023-03-02T06:46:51.201Z,75.20801
2023-03-02T06:48:51.136Z,74.84668
2023-03-02T06:50:51.155Z,74.99609
2023-03-02T06:54:01.481Z,74.8252
2023-03-02T06:56:01.497Z,74.94922
2023-03-02T06:58:01.471Z,74.28711
2023-03-02T07:00:01.463Z,74.65234
2023-03-02T07:02:01.606Z,74.74121
2023-03-02T07:04:01.707Z,74.35742
2023-03-02T07:06:01.596Z,74.43848
2023-03-02T07:09:13.530Z,74.40527
2023-03-02T07:11:13.507Z,73.60156
2023-03-02T07:13:13.418Z,74.10645
2023-03-02T07:15:13.432Z,74.32031
2023-03-02T07:17:13.427Z,73.38477
2023-03-02T07:19:13.454Z,74.63281
2023-03-02T07:21:13.373Z,73.34473
2023-03-02T07:24:49.918Z,74.05371
2023-03-02T07:26:49.892Z,73.75488
2023-03-02T07:28:49.866Z,73.72949
2023-03-02T07:30:50.048Z,73.56348
2023-03-02T07:32:49.852Z,73.54492
2023-03-02T07:34:49.846Z,73.59863
2023-03-02T07:36:49.888Z,73.5293
2023-03-02T07:39:47.675Z,71.94824
2023-03-02T07:41:47.776Z,73.17773
2023-03-02T07:43:47.730Z,73.05859
2023-03-02T07:45:47.770Z,73.22949
2023-03-02T07:47:47.726Z,72.41113
2023-03-02T07:49:47.685Z,73.3584
2023-03-02T07:51:47.760Z,72.3291
2023-03-02T07:55:01.390Z,71.62305
2023-03-02T07:57:01.386Z,71.89453
2023-03-02T07:59:01.493Z,71.22461
2023-03-02T08:01:01.338Z,70.74805
2023-03-02T08:03:01.550Z,71.45313
2023-03-02T08:05:01.335Z,71.6875
2023-03-02T08:07:01.426Z,71.92383
2023-03-02T08:10:22.382Z,71.72461
2023-03-02T08:12:22.361Z,68.56836
2023-03-02T08:14:22.419Z,67.96973
2023-03-02T08:16:22.619Z,69.27148
2023-03-02T08:18:22.318Z,66.80273
2023-03-02T08:20:22.451Z,65.20117
2023-03-02T08:22:22.618Z,66.2832
2023-03-02T08:24:58.358Z,67.37402
2023-03-02T08:26:58.382Z,66.66797
2023-03-02T08:28:58.382Z,67.27832
2023-03-02T08:30:58.419Z,68.63867
2023-03-02T08:32:58.384Z,68.95898
2023-03-02T08:34:58.360Z,67.63086
2023-03-02T08:36:58.384Z,66.16895
2023-03-02T08:40:01.597Z,67.87012
2023-03-02T08:42:01.474Z,67.04395
2023-03-02T08:44:01.513Z,66.81055
2023-03-02T08:46:01.681Z,66.05957
2023-03-02T08:48:01.422Z,65.17188
2023-03-02T08:50:01.467Z,66.58398
2023-03-02T08:52:01.442Z,67.76172
2023-03-02T08:54:01.427Z,67.73145
2023-03-02T08:55:07.870Z,66.88574
2023-03-02T08:57:07.822Z,67.45605
2023-03-02T08:59:07.721Z,66.17285
2023-03-02T09:01:07.948Z,68.02539
2023-03-02T09:03:07.805Z,66.26074
2023-03-02T09:05:07.873Z,66.64551
2023-03-02T09:07:07.733Z,66.20215
2023-03-02T09:09:07.745Z,64.03418
2023-03-02T09:11:05.683Z,65.66309
2023-03-02T09:13:08.768Z,65.21191
2023-03-02T09:15:05.647Z,65.32617
2023-03-02T09:17:05.688Z,64.72266
2023-03-02T09:19:05.645Z,64.6377
2023-03-02T09:21:05.689Z,63.88477
2023-03-02T09:23:05.690Z,63.96191
2023-03-02T09:25:31.643Z,63.28418
2023-03-02T09:27:31.781Z,62.6875
2023-03-02T09:29:31.620Z,64.68066
2023-03-02T09:31:32.318Z,65.86719
2023-03-02T09:33:31.696Z,65.41211
2023-03-02T09:35:31.609Z,65.3877
2023-03-02T09:37:31.843Z,64.24219
2023-03-02T09:39:31.633Z,65.33398
2023-03-02T09:40:56.258Z,65.96582
2023-03-02T09:42:56.283Z,64.79102
2023-03-02T09:44:56.436Z,65.4668
2023-03-02T09:46:56.233Z,65.92188
2023-03-02T09:48:56.324Z,65.33887
2023-03-02T09:50:56.312Z,64.19434
2023-03-02T09:52:56.228Z,62.98828
2023-03-02T09:56:16.729Z,63.87305
2023-03-02T09:58:16.700Z,63.46973
2023-03-02T10:00:20.553Z,63.17578
2023-03-02T10:02:16.699Z,63.2832
2023-03-02T10:04:17.061Z,62.86133
2023-03-02T10:06:16.786Z,62.8418
2023-03-02T10:08:16.700Z,63.6377
2023-03-02T10:11:41.313Z,64.69531
2023-03-02T10:13:41.361Z,64.40332
2023-03-02T10:15:41.452Z,64.77246
2023-03-02T10:17:41.351Z,63.86621
2023-03-02T10:19:41.558Z,64.55371
2023-03-02T10:21:41.488Z,64.62793
2023-03-02T10:23:41.381Z,65.05664
2023-03-02T10:26:42.570Z,65.68066
2023-03-02T10:28:42.544Z,64.29883
2023-03-02T10:30:42.588Z,65.63965
2023-03-02T10:32:42.599Z,65.4082
2023-03-02T10:34:42.629Z,65.09668
2023-03-02T10:36:42.598Z,65.34961
2023-03-02T10:38:42.609Z,65.56934
2023-03-02T10:41:56.668Z,63.8252
2023-03-02T10:43:56.617Z,64.08594
2023-03-02T10:45:56.645Z,63.79883
2023-03-02T10:47:56.622Z,63.22852
2023-03-02T10:49:56.584Z,63.45703
2023-03-02T10:51:56.600Z,62.33105
2023-03-02T10:53:56.580Z,61.55469
2023-03-02T10:56:37.503Z,62.53809
2023-03-02T10:58:37.524Z,62.03516
2023-03-02T11:00:37.552Z,61.46191
2023-03-02T11:02:37.567Z,62.12207
2023-03-02T11:04:37.591Z,62.1709
2023-03-02T11:06:37.518Z,61.18848
2023-03-02T11:08:37.660Z,61.13574
2023-03-02T11:12:09.378Z,62.7168
2023-03-02T11:14:09.214Z,61.52637
2023-03-02T11:16:09.367Z,60.04492
2023-03-02T11:18:09.201Z,58.55176
2023-03-02T11:20:09.204Z,60.6377
2023-03-02T11:22:09.230Z,62.56641
2023-03-02T11:24:10.943Z,62.70996
2023-03-02T11:27:20.052Z,64.35645
2023-03-02T11:29:22.896Z,63.93555
2023-03-02T11:31:20.224Z,64.81641
2023-03-02T11:33:20.154Z,63.68555
2023-03-02T11:35:23.015Z,62.91602
2023-03-02T11:37:20.062Z,64.08105
2023-03-02T11:39:20.120Z,62.87988
2023-03-02T11:42:03.930Z,63.01758
2023-03-02T11:44:03.904Z,61.88965
2023-03-02T11:46:21.441Z,63.08203
2023-03-02T11:48:04.443Z,62.34473
2023-03-02T11:50:03.950Z,63.1123
2023-03-02T11:52:03.873Z,62.18359
2023-03-02T11:54:03.926Z,64.90723
2023-03-02T11:57:12.862Z,66.31445
2023-03-02T11:59:12.911Z,66
2023-03-02T12:01:12.827Z,64.65234
2023-03-02T12:03:12.826Z,64.07129
2023-03-02T12:05:12.911Z,64.18262
2023-03-02T12:07:12.867Z,64.30176
2023-03-02T12:09:13.017Z,63.82715
2023-03-02T12:12:26.503Z,66.03125
2023-03-02T12:14:26.404Z,64.57324
2023-03-02T12:16:26.543Z,64.49512
2023-03-02T12:18:26.479Z,63.77734
2023-03-02T12:20:26.462Z,64.14551
2023-03-02T12:22:26.355Z,64.25391
2023-03-02T12:24:26.375Z,63.51563
2023-03-02T12:27:37.334Z,62.6377
2023-03-02T12:29:37.303Z,65.11523
2023-03-02T12:31:37.258Z,63.7207
2023-03-02T12:33:37.515Z,62.87207
2023-03-02T12:35:37.269Z,64.11328
2023-03-02T12:37:37.108Z,64.13086
2023-03-02T12:39:37.108Z,64.04004
2023-03-02T12:43:28.640Z,63.8418
2023-03-02T12:45:28.544Z,64.28711
2023-03-02T12:47:29.628Z,63.54492
2023-03-02T12:49:28.538Z,64.4043
2023-03-02T12:51:28.756Z,64.18262
2023-03-02T12:53:28.492Z,63.80469
2023-03-02T12:55:28.509Z,63.36719
2023-03-02T12:57:44.186Z,62.68945
2023-03-02T12:59:44.443Z,62.92871
2023-03-02T13:01:44.159Z,62.42773
2023-03-02T13:03:44.261Z,61.07227
2023-03-02T13:05:44.160Z,60.625
2023-03-02T13:07:44.189Z,61.87988
2023-03-02T13:09:56.847Z,60.2832
2023-03-02T13:11:44.597Z,59.74219
2023-03-02T13:13:34.828Z,60.15527
2023-03-02T13:15:34.673Z,59.35352
2023-03-02T13:17:34.435Z,61.18066
2023-03-02T13:19:34.526Z,61.37305
2023-03-02T13:21:34.485Z,61.85059
2023-03-02T13:23:34.430Z,63.18555
2023-03-02T13:25:34.464Z,64.69824
2023-03-02T13:28:44.270Z,62.13184
2023-03-02T13:30:44.568Z,61.76465
2023-03-02T13:32:44.249Z,60.21875
2023-03-02T13:34:44.225Z,60.78613
2023-03-02T13:36:44.240Z,61.14453
2023-03-02T13:38:44.263Z,60.17578
2023-03-02T13:40:44.751Z,60.58594
2023-03-02T13:43:36.891Z,61.00195
2023-03-02T13:45:36.907Z,60.41699
2023-03-02T13:47:37.089Z,60.81836
2023-03-02T13:49:36.875Z,61.02344
2023-03-02T13:51:36.860Z,62.53711
2023-03-02T13:53:36.949Z,63.7168
2023-03-02T13:55:36.857Z,63.6543
2023-03-02T13:59:15.619Z,63.41406
2023-03-02T14:01:15.705Z,64.06641
2023-03-02T14:03:15.669Z,63.8916
2023-03-02T14:05:15.972Z,64.71875
2023-03-02T14:07:15.705Z,64.45605
2023-03-02T14:09:15.625Z,63.99023
2023-03-02T14:11:15.741Z,64.13184
2023-03-02T14:13:34.669Z,64.62988
2023-03-02T14:15:34.829Z,64.94531
2023-03-02T14:17:34.718Z,65.5752
2023-03-02T14:19:34.737Z,65.30371
2023-03-02T14:21:35.602Z,65.79297
2023-03-02T14:23:34.920Z,65.35547
2023-03-02T14:25:34.684Z,65.39063
2023-03-02T14:27:34.700Z,65.16406
2023-03-02T14:29:07.550Z,64.90332
2023-03-02T14:31:07.674Z,65.22461
2023-03-02T14:33:07.636Z,64.99902
2023-03-02T14:35:07.552Z,64.58984
2023-03-02T14:37:07.405Z,64.76074
2023-03-02T14:39:07.413Z,64.62109
2023-03-02T14:41:07.588Z,64.75293
2023-03-02T14:44:22.290Z,64.41699
2023-03-02T14:46:22.456Z,63.41797
2023-03-02T14:48:22.453Z,61.72949
2023-03-02T14:50:22.318Z,61.60742
2023-03-02T14:52:22.241Z,61.49219
2023-03-02T14:54:22.326Z,61.16992
2023-03-02T14:56:22.273Z,61.57324
2023-03-02T14:59:27.109Z,64.57813
2023-03-02T15:01:27.297Z,63.33105
2023-03-02T15:03:27.233Z,62.49316
2023-03-02T15:05:27.321Z,61.89258
2023-03-02T15:07:27.129Z,62.30469
2023-03-02T15:09:27.159Z,61.5166
2023-03-02T15:11:27.095Z,61.2207
2023-03-02T15:15:06.053Z,61.85645
2023-03-02T15:17:06.055Z,61.7666
2023-03-02T15:19:05.958Z,61.72461
2023-03-02T15:21:06.047Z,61.09375
2023-03-02T15:23:05.941Z,60.4502
2023-03-02T15:25:05.957Z,60.86621
2023-03-02T15:27:05.985Z,61.22754
2023-03-02T15:30:13.655Z,61.94922
2023-03-02T15:32:13.788Z,61.85352
2023-03-02T15:34:13.612Z,62.18945
2023-03-02T15:36:13.881Z,61.69531
2023-03-02T15:38:13.678Z,62.09863
2023-03-02T15:40:13.630Z,61.93555
2023-03-02T15:42:14.326Z,62.49316
2023-03-02T15:44:48.772Z,62.37891
2023-03-02T15:46:48.899Z,62.46289
2023-03-02T15:48:48.766Z,62.4043
2023-03-02T15:50:48.695Z,62.37598
2023-03-02T15:52:48.756Z,62.70313
2023-03-02T15:54:48.706Z,62.6582
2023-03-02T15:56:48.789Z,63.74316
2023-03-02T16:00:17.773Z,64.28906
2023-03-02T16:02:17.832Z,64.12988
2023-03-02T16:04:17.776Z,63.54004
2023-03-02T16:06:17.822Z,64.16895
2023-03-02T16:08:17.809Z,64.97266
2023-03-02T16:10:18.108Z,64.68945
2023-03-02T16:12:17.905Z,64.16797
2023-03-02T16:15:10.874Z,63.83789
2023-03-02T16:17:10.967Z,63.43848
2023-03-02T16:19:11.178Z,63.67773
2023-03-02T16:21:10.857Z,62.97461
2023-03-02T16:23:11.280Z,63.52441
2023-03-02T16:25:10.922Z,63.76563
2023-03-02T16:27:10.891Z,64.12598
2023-03-02T16:30:30.605Z,64.55859
2023-03-02T16:32:30.716Z,65.08398
2023-03-02T16:34:30.474Z,64.81738
2023-03-02T16:36:30.347Z,64.89551
2023-03-02T16:38:30.630Z,64.93164
2023-03-02T16:40:30.500Z,64.6543
2023-03-02T16:42:30.522Z,64.46875
2023-03-02T16:45:09.229Z,64.39355
2023-03-02T16:47:09.189Z,64.05762
2023-03-02T16:49:09.292Z,63.38086
2023-03-02T16:51:09.158Z,63.93848
2023-03-02T16:53:09.285Z,63.70703
2023-03-02T16:55:09.140Z,64.08887
2023-03-02T16:57:09.275Z,64.24805
2023-03-02T16:59:09.164Z,64.19824
2023-03-02T17:01:13.547Z,64.68848
2023-03-02T17:03:13.227Z,63.94629
2023-03-02T17:05:13.191Z,64.47656
2023-03-02T17:07:13.163Z,63.95898
2023-03-02T17:09:13.801Z,64.61133
2023-03-02T17:11:13.170Z,65.10938
2023-03-02T17:13:13.472Z,64.83398
2023-03-02T17:15:37.528Z,64.62793
2023-03-02T17:17:37.214Z,64.10352
2023-03-02T17:19:37.196Z,64.01172
2023-03-02T17:21:37.217Z,64.08008
2023-03-02T17:23:37.361Z,63.2666
2023-03-02T17:25:37.252Z,64.02051
2023-03-02T17:27:37.335Z,64.83691
2023-03-02T17:29:37.409Z,65.02832
2023-03-02T17:31:26.735Z,64.13477
2023-03-02T17:33:26.540Z,63.79785
2023-03-02T17:35:26.519Z,63.33594
2023-03-02T17:37:26.657Z,64.13574
2023-03-02T17:39:26.709Z,65.10645
2023-03-02T17:41:26.653Z,65.63184
2023-03-02T17:43:26.615Z,66.1377
2023-03-02T17:46:21.022Z,66.22363
2023-03-02T17:48:20.805Z,66.64941
2023-03-02T17:50:20.674Z,66.26465
2023-03-02T17:52:20.858Z,65.74121
2023-03-02T17:54:20.783Z,65.42578
2023-03-02T17:56:20.775Z,65.04395
2023-03-02T17:58:20.978Z,64.67773
2023-03-02T18:01:33.562Z,64.96777
2023-03-02T18:03:33.587Z,64.8584
2023-03-02T18:05:33.469Z,64.87988
2023-03-02T18:07:33.477Z,65.36523
2023-03-02T18:09:33.527Z,65.58789
2023-03-02T18:11:33.463Z,65.37695
2023-03-02T18:13:33.480Z,65.48438
2023-03-02T18:16:13.920Z,65.85742
2023-03-02T18:18:13.849Z,65.7002
2023-03-02T18:20:13.845Z,65.81738
2023-03-02T18:22:13.811Z,65.62891
2023-03-02T18:24:13.954Z,65.92871
2023-03-02T18:26:14.410Z,66.15332
2023-03-02T18:28:13.975Z,65.89746
2023-03-02T18:30:13.788Z,65.63965
2023-03-02T18:31:52.154Z,66.29883
2023-03-02T18:33:53.104Z,66.11621
2023-03-02T18:35:52.796Z,66.05469
2023-03-02T18:37:53.260Z,66.11035
2023-03-02T18:39:52.391Z,66.18359
2023-03-02T18:41:52.251Z,65.77148
2023-03-02T18:43:52.180Z,65.95313
2023-03-02T18:47:28.084Z,66.09082
2023-03-02T18:49:28.189Z,66.12207
2023-03-02T18:51:28.276Z,65.46289
2023-03-02T18:53:27.945Z,65.7207
2023-03-02T18:55:27.872Z,65.38086
2023-03-02T18:57:28.062Z,65.38086
2023-03-02T18:59:28.128Z,65.22266
2023-03-02T19:01:43.365Z,65.4668
2023-03-02T19:03:43.154Z,66.12988
2023-03-02T19:05:43.194Z,65.7334
2023-03-02T19:07:43.169Z,65.89551
2023-03-02T19:09:43.126Z,65.62207
2023-03-02T19:11:43.173Z,65.6543
2023-03-02T19:13:43.103Z,65.7666
2023-03-02T19:15:43.230Z,65.7666
2023-03-02T19:17:20.878Z,65.76465
2023-03-02T19:19:20.845Z,65.80859
2023-03-02T19:21:20.974Z,65.82617
2023-03-02T19:23:20.817Z,65.69922
2023-03-02T19:25:20.837Z,65.3291
2023-03-02T19:27:20.783Z,65.5166
2023-03-02T19:29:20.969Z,65.21191
2023-03-02T19:32:33.694Z,65.35742
2023-03-02T19:34:33.304Z,65.57129
2023-03-02T19:36:33.371Z,65.35059
2023-03-02T19:38:33.597Z,65.54883
2023-03-02T19:40:33.344Z,65.54297
2023-03-02T19:42:33.497Z,65.57617
2023-03-02T19:44:33.477Z,65.3916
2023-03-02T19:47:50.635Z,66.29395
2023-03-02T19:49:50.683Z,66.13086
2023-03-02T19:51:50.882Z,65.80176
2023-03-02T19:53:50.636Z,65.93066
2023-03-02T19:55:50.661Z,65.76758
2023-03-02T19:57:50.535Z,66.00488
2023-03-02T19:59:50.645Z,65.76172
2023-03-02T20:03:01.387Z,66.01074
2023-03-02T20:05:01.216Z,65.8418
2023-03-02T20:07:01.275Z,65.97559
2023-03-02T20:09:01.280Z,67.13965
2023-03-02T20:11:01.099Z,67.69043
2023-03-02T20:13:01.188Z,67.81543
2023-03-02T20:15:01.169Z,67.89844
2023-03-02T20:18:04.166Z,67.73926
2023-03-02T20:20:04.218Z,67.60254
2023-03-02T20:22:04.176Z,67.63574
2023-03-02T20:24:04.127Z,67.52734
2023-03-02T20:26:04.109Z,67.47754
2023-03-02T20:28:04.058Z,67.14258
2023-03-02T20:30:04.195Z,67.07227
2023-03-02T20:32:49.207Z,67.28418
2023-03-02T20:34:49.192Z,67.13672
2023-03-02T20:36:49.304Z,67.49121
2023-03-02T20:38:49.260Z,67.60156
2023-03-02T20:40:49.336Z,67.69043
2023-03-02T20:42:49.090Z,67.70117
2023-03-02T20:44:49.334Z,67.75977
2023-03-02T20:48:14.980Z,67.87207
2023-03-02T20:50:15.106Z,67.98047
2023-03-02T20:52:15.331Z,68.41602
2023-03-02T20:54:15.040Z,68.56934
2023-03-02T20:56:15.235Z,68.68555
2023-03-02T20:58:15.152Z,68.20898
2023-03-02T21:00:14.922Z,67.96582
2023-03-02T21:03:33.427Z,68.31738
2023-03-02T21:05:33.437Z,68.47656
2023-03-02T21:07:33.759Z,68.48047
2023-03-02T21:09:33.471Z,68.63867
2023-03-02T21:11:33.555Z,68.74414
2023-03-02T21:13:33.422Z,68.2041
2023-03-02T21:15:33.515Z,67.9707
2023-03-02T21:18:11.081Z,68.44727
2023-03-02T21:20:11.231Z,68.24121
2023-03-02T21:22:11.216Z,68.58008
2023-03-02T21:24:11.445Z,68.62988
2023-03-02T21:26:11.094Z,68.71289
2023-03-02T21:28:11.195Z,68.625
2023-03-02T21:30:11.286Z,68.36328
2023-03-02T21:32:11.269Z,68.48828
2023-03-02T21:33:49.555Z,68.2793
2023-03-02T21:35:49.282Z,68.37695
2023-03-02T21:37:49.263Z,68.10254
2023-03-02T21:39:49.180Z,67.74902
2023-03-02T21:41:49.159Z,68.5752
2023-03-02T21:43:49.346Z,67.97949
2023-03-02T21:45:49.325Z,67.83594
2023-03-02T21:48:40.444Z,67.71387
2023-03-02T21:50:40.656Z,67.59375
2023-03-02T21:52:40.430Z,67.63965
2023-03-02T21:54:40.340Z,67.58301
2023-03-02T21:56:40.413Z,67.49805
2023-03-02T21:58:40.407Z,67.59863
2023-03-02T22:00:40.449Z,67.52539
2023-03-02T22:04:08.411Z,67.57422
2023-03-02T22:06:08.357Z,67.29688
2023-03-02T22:08:08.326Z,67.2666
2023-03-02T22:10:08.506Z,67.50293
2023-03-02T22:12:08.491Z,66.92676
2023-03-02T22:14:08.441Z,66.97461
2023-03-02T22:16:08.606Z,66.31152
2023-03-02T22:19:17.287Z,66.74121
2023-03-02T22:21:17.281Z,67.5293
2023-03-02T22:23:17.196Z,67.59277
2023-03-02T22:25:17.210Z,68.01074
2023-03-02T22:27:17.220Z,67.69727
2023-03-02T22:29:17.158Z,67.86133
2023-03-02T22:31:17.362Z,67.70508
2023-03-02T22:34:00.277Z,67.42773
2023-03-02T22:36:00.655Z,67.74707
2023-03-02T22:38:00.413Z,67.56543
2023-03-02T22:40:00.371Z,67.7168
2023-03-02T22:42:00.328Z,67.62891
2023-03-02T22:44:00.328Z,67.13574
2023-03-02T22:46:00.402Z,66.94434
2023-03-02T22:48:00.353Z,67.13477
2023-03-02T22:49:47.403Z,67.19531
2023-03-02T22:51:47.349Z,67.80566
2023-03-02T22:53:47.192Z,67.73438
2023-03-02T22:55:47.306Z,67.55762
2023-03-02T22:57:47.123Z,67.42285
2023-03-02T22:59:47.169Z,67.79785
2023-03-02T23:01:47.164Z,68.27441
2023-03-02T23:04:34.931Z,69.10059
2023-03-02T23:06:34.828Z,69.38086
2023-03-02T23:08:34.846Z,69.68457
2023-03-02T23:10:34.834Z,69.50879
2023-03-02T23:12:34.871Z,69.91797
2023-03-02T23:14:34.896Z,69.68164
2023-03-02T23:16:34.934Z,69.36133
2023-03-02T23:20:19.644Z,69.1748
2023-03-02T23:22:19.561Z,70.12402
2023-03-02T23:24:19.432Z,69.59668
2023-03-02T23:26:19.560Z,69.4082
2023-03-02T23:28:19.732Z,69.51758
2023-03-02T23:30:19.420Z,69.73633
2023-03-02T23:32:20.176Z,69.89551
2023-03-02T23:34:59.665Z,69.54883
2023-03-02T23:37:00.754Z,69.37207
2023-03-02T23:38:59.747Z,69.23633
2023-03-02T23:40:59.738Z,69.45313
2023-03-02T23:43:00.176Z,69.59668
2023-03-02T23:44:59.650Z,69.58398
2023-03-02T23:46:59.759Z,69.1748
2023-03-02T23:50:06.289Z,69.29199
2023-03-02T23:52:06.266Z,69.70508
2023-03-02T23:54:06.146Z,70.33594
2023-03-02T23:56:06.245Z,70.59961
2023-03-02T23:58:06.255Z,70.30664
